createdAt,value
2022-10-30T00:00:53.681Z,14.25
2022-10-30T00:03:20.480Z,14.22
2022-10-30T00:05:49.661Z,14.18
2022-10-30T00:08:19.131Z,14.14
2022-10-30T00:10:46.635Z,14.08
2022-10-30T00:13:14.055Z,14.05
2022-10-30T00:15:46.225Z,14.02
2022-10-30T00:18:12.751Z,13.99
2022-10-30T00:20:39.244Z,13.98
2022-10-30T00:23:05.940Z,13.96
2022-10-30T00:25:34.351Z,13.94
2022-10-30T00:28:00.845Z,13.93
2022-10-30T00:30:27.337Z,13.91
2022-10-30T00:32:53.867Z,13.90
2022-10-30T00:35:21.744Z,13.91
2022-10-30T00:37:48.215Z,13.89
2022-10-30T00:40:16.357Z,13.96
2022-10-30T00:42:43.670Z,13.95
2022-10-30T00:45:14.876Z,13.99
2022-10-30T00:47:51.546Z,13.97
2022-10-30T00:53:08.739Z,13.87
2022-10-30T00:55:39.748Z,13.91
2022-10-30T00:58:10.473Z,13.85
2022-10-30T01:00:40.635Z,13.76
2022-10-30T01:03:07.407Z,13.70
2022-10-30T01:05:35.401Z,13.69
2022-10-30T01:08:02.348Z,13.68
2022-10-30T01:10:29.138Z,13.65
2022-10-30T01:12:58.544Z,13.62
2022-10-30T01:15:31.563Z,13.64
2022-10-30T01:18:21.058Z,13.61
2022-10-30T01:21:28.055Z,13.57
2022-10-30T01:24:25.510Z,13.55
2022-10-30T01:27:42.044Z,13.51
2022-10-30T01:30:08.504Z,13.51
2022-10-30T01:32:50.010Z,13.48
2022-10-30T01:36:07.423Z,13.51
2022-10-30T01:39:04.260Z,13.50
2022-10-30T01:41:30.838Z,13.46
2022-10-30T01:44:01.941Z,13.46
2022-10-30T01:46:44.907Z,13.44
2022-10-30T01:49:35.432Z,13.40
2022-10-30T01:52:23.825Z,13.37
2022-10-30T01:55:05.462Z,13.31
2022-10-30T01:57:42.380Z,13.35
2022-10-30T02:00:16.042Z,13.35
2022-10-30T02:02:43.586Z,13.31
2022-10-30T02:05:14.914Z,13.28
2022-10-30T02:07:41.409Z,13.27
2022-10-30T02:10:08.361Z,13.23
2022-10-30T02:12:34.931Z,13.21
2022-10-30T02:15:01.912Z,13.20
2022-10-30T02:17:28.477Z,13.15
2022-10-30T02:19:55.393Z,13.12
2022-10-30T02:22:22.246Z,13.09
2022-10-30T02:24:48.942Z,13.07
2022-10-30T02:27:15.535Z,13.09
2022-10-30T02:29:42.070Z,13.08
2022-10-30T02:32:08.589Z,13.05
2022-10-30T02:34:35.156Z,13.02
2022-10-30T02:37:01.826Z,13.01
2022-10-30T02:39:28.375Z,12.98
2022-10-30T02:41:54.987Z,12.97
2022-10-30T02:44:21.574Z,12.95
2022-10-30T02:46:48.059Z,12.93
2022-10-30T02:49:14.584Z,12.93
2022-10-30T02:51:41.130Z,12.94
2022-10-30T02:54:07.716Z,12.95
2022-10-30T02:56:34.268Z,12.98
2022-10-30T02:59:01.001Z,12.98
2022-10-30T03:01:27.617Z,12.95
2022-10-30T03:03:54.271Z,12.93
2022-10-30T03:06:20.934Z,12.87
2022-10-30T03:08:47.526Z,12.88
2022-10-30T03:11:19.639Z,12.88
2022-10-30T03:13:47.573Z,12.87
2022-10-30T03:16:22.974Z,12.84
2022-10-30T03:18:50.967Z,12.82
2022-10-30T03:21:20.268Z,12.80
2022-10-30T03:23:47.005Z,12.79
2022-10-30T03:26:13.737Z,12.81
2022-10-30T03:28:40.247Z,12.80
2022-10-30T03:31:09.806Z,12.81
2022-10-30T03:33:37.697Z,12.74
2022-10-30T03:36:06.650Z,12.71
2022-10-30T03:38:33.462Z,12.73
2022-10-30T03:41:00.327Z,12.72
2022-10-30T03:43:27.178Z,12.71
2022-10-30T03:45:55.563Z,12.70
2022-10-30T03:48:24.925Z,12.63
2022-10-30T03:51:00.592Z,12.63
2022-10-30T03:53:28.622Z,12.59
2022-10-30T03:56:01.299Z,12.59
2022-10-30T03:58:29.143Z,12.58
2022-10-30T04:01:01.665Z,12.59
2022-10-30T04:03:28.324Z,12.57
2022-10-30T04:05:54.922Z,12.51
2022-10-30T04:08:22.018Z,12.52
2022-10-30T04:10:48.658Z,12.50
2022-10-30T04:13:17.120Z,12.45
2022-10-30T04:15:43.747Z,12.44
2022-10-30T04:18:13.742Z,12.43
2022-10-30T04:20:40.695Z,12.44
2022-10-30T04:23:09.146Z,12.42
2022-10-30T04:25:36.084Z,12.43
2022-10-30T04:28:03.292Z,12.42
2022-10-30T04:30:34.078Z,12.37
2022-10-30T04:33:02.934Z,12.35
2022-10-30T04:35:32.323Z,12.36
2022-10-30T04:38:03.787Z,12.36
2022-10-30T04:40:33.495Z,12.40
2022-10-30T04:43:01.003Z,12.42
2022-10-30T04:45:27.782Z,12.41
2022-10-30T04:48:01.248Z,12.37
2022-10-30T04:50:28.070Z,12.40
2022-10-30T04:53:11.887Z,12.38
2022-10-30T04:55:38.591Z,12.34
2022-10-30T04:58:05.141Z,12.33
2022-10-30T05:00:32.354Z,12.28
2022-10-30T05:03:01.018Z,12.23
2022-10-30T05:05:29.067Z,12.18
2022-10-30T05:07:56.063Z,12.11
2022-10-30T05:10:23.461Z,12.17
2022-10-30T05:12:52.680Z,12.15
2022-10-30T05:15:19.343Z,12.14
2022-10-30T05:17:45.899Z,12.19
2022-10-30T05:20:14.876Z,12.17
2022-10-30T05:22:45.210Z,12.11
2022-10-30T05:25:11.773Z,12.10
2022-10-30T05:27:38.241Z,12.11
2022-10-30T05:30:05.154Z,12.08
2022-10-30T05:32:31.655Z,12.08
2022-10-30T05:34:58.203Z,12.01
2022-10-30T05:37:25.053Z,12.00
2022-10-30T05:39:51.715Z,12.00
2022-10-30T05:42:18.212Z,12.00
2022-10-30T05:45:00.292Z,11.96
2022-10-30T05:47:27.733Z,12.01
2022-10-30T05:49:54.260Z,12.02
2022-10-30T05:52:20.794Z,11.89
2022-10-30T05:54:47.449Z,11.80
2022-10-30T05:57:14.007Z,11.63
2022-10-30T05:59:40.569Z,11.61
2022-10-30T06:02:07.152Z,11.59
2022-10-30T06:04:33.821Z,11.58
2022-10-30T06:07:00.333Z,11.59
2022-10-30T06:09:26.881Z,11.65
2022-10-30T06:11:53.997Z,11.70
2022-10-30T06:14:20.520Z,11.76
2022-10-30T06:16:47.686Z,11.85
2022-10-30T06:19:17.549Z,11.91
2022-10-30T06:21:45.947Z,12.06
2022-10-30T06:24:12.723Z,12.10
2022-10-30T06:26:39.542Z,12.23
2022-10-30T06:29:06.104Z,12.28
2022-10-30T06:31:32.767Z,12.62
2022-10-30T06:33:59.481Z,13.01
2022-10-30T06:36:26.124Z,13.39
2022-10-30T06:38:52.824Z,13.78
2022-10-30T06:41:19.423Z,14.07
2022-10-30T06:43:46.013Z,14.48
2022-10-30T06:46:12.620Z,14.86
2022-10-30T06:48:39.199Z,15.14
2022-10-30T06:51:06.136Z,15.17
2022-10-30T06:53:32.710Z,15.38
2022-10-30T06:56:01.762Z,15.72
2022-10-30T06:58:29.825Z,16.05
2022-10-30T07:00:59.266Z,16.39
2022-10-30T07:03:25.803Z,16.92
2022-10-30T07:05:52.773Z,17.25
2022-10-30T07:08:19.361Z,17.72
2022-10-30T07:10:45.882Z,18.08
2022-10-30T07:13:12.527Z,18.52
2022-10-30T07:15:39.352Z,18.76
2022-10-30T07:18:06.489Z,19.34
2022-10-30T07:20:34.454Z,19.38
2022-10-30T07:23:01.700Z,19.62
2022-10-30T07:25:28.592Z,20.12
2022-10-30T07:27:57.087Z,20.21
2022-10-30T07:33:02.811Z,20.57
2022-10-30T07:35:30.922Z,21.03
2022-10-30T07:38:05.564Z,21.27
2022-10-30T07:40:33.113Z,21.17
2022-10-30T07:43:01.918Z,21.50
2022-10-30T07:45:29.270Z,21.88
2022-10-30T07:47:56.725Z,22.25
2022-10-30T07:50:24.557Z,22.04
2022-10-30T07:52:51.121Z,22.53
2022-10-30T07:55:18.063Z,22.55
2022-10-30T07:57:44.646Z,23.15
2022-10-30T08:00:13.907Z,23.45
2022-10-30T08:02:40.936Z,23.62
2022-10-30T08:05:08.290Z,23.82
2022-10-30T08:07:37.757Z,23.97
2022-10-30T08:10:06.145Z,23.93
2022-10-30T08:12:32.854Z,23.99
2022-10-30T08:14:59.421Z,23.70
2022-10-30T08:17:26.017Z,23.57
2022-10-30T08:19:52.715Z,24.14
2022-10-30T08:22:19.272Z,24.64
2022-10-30T08:24:45.912Z,24.91
2022-10-30T08:27:12.436Z,24.49
2022-10-30T08:29:39.093Z,24.92
2022-10-30T08:32:05.829Z,24.83
2022-10-30T08:34:34.583Z,25.09
2022-10-30T08:37:01.295Z,25.51
2022-10-30T08:39:27.857Z,25.70
2022-10-30T08:41:56.796Z,26.00
2022-10-30T08:44:23.340Z,26.12
2022-10-30T08:46:49.848Z,26.14
2022-10-30T08:49:16.427Z,26.57
2022-10-30T08:51:43.058Z,25.77
2022-10-30T08:54:10.997Z,25.89
2022-10-30T08:56:37.566Z,26.09
2022-10-30T08:59:04.088Z,25.03
2022-10-30T09:01:30.676Z,26.01
2022-10-30T09:03:57.376Z,25.91
2022-10-30T09:06:23.993Z,26.15
2022-10-30T09:08:50.583Z,26.27
2022-10-30T09:11:17.524Z,26.82
2022-10-30T09:13:44.175Z,26.88
2022-10-30T09:16:10.800Z,26.31
2022-10-30T09:18:37.435Z,26.46
2022-10-30T09:21:05.159Z,26.88
2022-10-30T09:23:32.193Z,26.59
2022-10-30T09:25:58.840Z,26.00
2022-10-30T09:28:25.364Z,26.34
2022-10-30T09:30:56.375Z,27.05
2022-10-30T09:33:23.419Z,27.08
2022-10-30T09:35:50.189Z,26.50
2022-10-30T09:38:16.789Z,26.77
2022-10-30T09:40:46.362Z,26.83
2022-10-30T09:43:50.739Z,26.63
2022-10-30T09:46:49.725Z,27.16
2022-10-30T09:49:38.283Z,27.57
2022-10-30T09:52:23.427Z,26.77
2022-10-30T09:55:05.141Z,27.31
2022-10-30T09:57:46.587Z,27.89
2022-10-30T10:00:19.577Z,28.20
2022-10-30T10:03:13.904Z,28.22
2022-10-30T10:05:51.235Z,28.00
2022-10-30T10:08:47.739Z,26.83
2022-10-30T10:11:23.118Z,26.58
2022-10-30T10:13:58.980Z,26.74
2022-10-30T10:16:33.581Z,26.50
2022-10-30T10:19:15.743Z,27.44
2022-10-30T10:21:47.661Z,27.19
2022-10-30T10:24:22.499Z,27.50
2022-10-30T10:27:14.835Z,26.93
2022-10-30T10:30:01.699Z,27.25
2022-10-30T10:32:28.541Z,27.01
2022-10-30T10:35:32.772Z,27.64
2022-10-30T10:38:12.940Z,27.11
2022-10-30T10:40:52.709Z,27.21
2022-10-30T10:43:40.472Z,27.38
2022-10-30T10:46:06.977Z,27.01
2022-10-30T10:48:39.960Z,26.84
2022-10-30T10:51:32.857Z,27.03
2022-10-30T10:54:10.715Z,26.75
2022-10-30T10:56:43.178Z,26.52
2022-10-30T10:59:23.157Z,25.38
2022-10-30T11:02:08.673Z,25.63
2022-10-30T11:04:43.469Z,25.71
2022-10-30T11:07:23.581Z,25.35
2022-10-30T11:09:55.463Z,25.36
2022-10-30T11:12:33.845Z,25.94
2022-10-30T11:15:16.073Z,25.78
2022-10-30T11:17:51.650Z,26.14
2022-10-30T11:20:25.514Z,26.27
2022-10-30T11:22:52.102Z,26.29
2022-10-30T11:25:28.603Z,26.36
2022-10-30T11:27:59.670Z,26.02
2022-10-30T11:30:28.935Z,26.53
2022-10-30T11:32:57.234Z,26.32
2022-10-30T11:35:25.112Z,26.57
2022-10-30T11:38:13.135Z,26.39
2022-10-30T11:40:41.397Z,26.30
2022-10-30T11:43:12.972Z,26.24
2022-10-30T11:45:43.581Z,26.53
2022-10-30T11:48:40.479Z,26.36
2022-10-30T11:51:07.101Z,26.73
2022-10-30T11:53:42.825Z,27.01
2022-10-30T11:56:19.239Z,27.16
2022-10-30T11:58:51.012Z,27.17
2022-10-30T12:01:25.756Z,27.02
2022-10-30T12:03:54.222Z,27.09
2022-10-30T12:06:24.792Z,26.92
2022-10-30T12:09:10.085Z,27.21
2022-10-30T12:11:37.923Z,27.41
2022-10-30T12:14:05.129Z,27.49
2022-10-30T12:16:32.957Z,27.62
2022-10-30T12:19:15.173Z,27.42
2022-10-30T12:21:47.029Z,27.34
2022-10-30T12:24:38.980Z,26.70
2022-10-30T12:27:18.172Z,26.81
2022-10-30T12:30:17.172Z,26.71
2022-10-30T12:32:57.471Z,26.57
2022-10-30T12:35:51.176Z,26.48
2022-10-30T12:38:38.005Z,26.39
2022-10-30T12:41:34.358Z,26.26
2022-10-30T12:44:14.313Z,26.02
2022-10-30T12:47:06.523Z,26.15
2022-10-30T12:49:51.901Z,26.04
2022-10-30T12:52:21.458Z,25.93
2022-10-30T12:55:16.268Z,25.48
2022-10-30T12:58:21.347Z,25.78
2022-10-30T13:00:58.077Z,25.78
2022-10-30T13:03:46.619Z,25.61
2022-10-30T13:06:21.010Z,25.71
2022-10-30T13:09:04.267Z,25.66
2022-10-30T13:11:39.809Z,25.76
2022-10-30T13:14:14.576Z,25.80
2022-10-30T13:16:41.286Z,25.81
2022-10-30T13:19:11.482Z,25.83
2022-10-30T13:21:48.963Z,25.78
2022-10-30T13:24:48.867Z,25.76
2022-10-30T13:27:42.636Z,25.64
2022-10-30T13:30:22.498Z,25.74
2022-10-30T13:32:49.028Z,25.56
2022-10-30T13:35:31.886Z,25.46
2022-10-30T13:38:03.776Z,25.69
2022-10-30T13:40:44.594Z,25.77
2022-10-30T13:43:42.904Z,25.73
2022-10-30T13:46:40.865Z,25.75
2022-10-30T13:49:25.629Z,25.66
2022-10-30T13:52:04.717Z,25.78
2022-10-30T13:54:46.784Z,25.80
2022-10-30T13:57:22.153Z,25.73
2022-10-30T14:00:06.649Z,25.60
2022-10-30T14:02:39.223Z,25.72
2022-10-30T14:05:29.204Z,25.56
2022-10-30T14:08:21.772Z,25.53
2022-10-30T14:11:00.406Z,25.61
2022-10-30T14:13:27.562Z,25.58
2022-10-30T14:16:01.175Z,25.40
2022-10-30T14:18:29.041Z,25.36
2022-10-30T14:21:19.849Z,25.38
2022-10-30T14:23:46.615Z,25.31
2022-10-30T14:26:14.371Z,25.32
2022-10-30T14:28:47.192Z,25.31
2022-10-30T14:31:16.760Z,25.31
2022-10-30T14:33:54.722Z,25.23
2022-10-30T14:36:41.468Z,25.19
2022-10-30T14:39:11.043Z,25.21
2022-10-30T14:41:52.633Z,25.14
2022-10-30T14:44:50.567Z,25.03
2022-10-30T14:47:39.793Z,24.89
2022-10-30T14:50:27.710Z,24.86
2022-10-30T14:53:19.043Z,24.81
2022-10-30T14:55:57.568Z,24.68
2022-10-30T14:58:26.871Z,24.65
2022-10-30T15:01:25.721Z,24.63
2022-10-30T15:04:01.095Z,24.60
2022-10-30T15:06:56.253Z,24.56
2022-10-30T15:09:53.690Z,24.50
2022-10-30T15:12:58.202Z,24.44
2022-10-30T15:15:28.053Z,24.34
2022-10-30T15:17:59.262Z,24.25
2022-10-30T15:20:31.562Z,24.15
2022-10-30T15:23:22.802Z,24.09
2022-10-30T15:26:08.944Z,23.97
2022-10-30T15:28:38.143Z,23.84
2022-10-30T15:31:24.597Z,23.81
2022-10-30T15:33:54.205Z,23.69
2022-10-30T15:36:25.322Z,23.57
2022-10-30T15:39:11.752Z,23.47
2022-10-30T15:41:57.246Z,23.38
2022-10-30T15:44:33.306Z,23.28
2022-10-30T15:47:02.211Z,23.21
2022-10-30T15:49:30.854Z,23.14
2022-10-30T15:51:58.852Z,23.03
2022-10-30T15:54:27.237Z,22.96
2022-10-30T15:57:31.200Z,22.84
2022-10-30T15:59:51.721Z,22.68
2022-10-30T16:02:23.935Z,22.52
2022-10-30T16:04:50.715Z,22.34
2022-10-30T16:07:29.045Z,22.20
2022-10-30T16:09:55.443Z,22.07
2022-10-30T16:12:31.422Z,21.93
2022-10-30T16:15:02.300Z,21.80
2022-10-30T16:17:28.908Z,21.66
2022-10-30T16:20:01.130Z,21.51
2022-10-30T16:22:35.722Z,21.32
2022-10-30T16:25:10.011Z,21.21
2022-10-30T16:27:43.965Z,21.02
2022-10-30T16:30:14.056Z,20.90
2022-10-30T16:32:41.484Z,20.68
2022-10-30T16:35:11.029Z,20.64
2022-10-30T16:37:41.206Z,20.59
2022-10-30T16:40:15.843Z,20.48
2022-10-30T16:42:50.283Z,20.38
2022-10-30T16:45:19.842Z,20.20
2022-10-30T16:47:58.351Z,20.06
2022-10-30T16:50:37.101Z,19.93
2022-10-30T16:53:11.306Z,19.81
2022-10-30T16:55:40.665Z,19.68
2022-10-30T16:58:07.326Z,19.49
2022-10-30T17:00:36.535Z,19.38
2022-10-30T17:03:11.965Z,19.25
2022-10-30T17:05:40.282Z,19.23
2022-10-30T17:08:33.256Z,19.17
2022-10-30T17:11:02.580Z,19.13
2022-10-30T17:13:34.845Z,19.15
2022-10-30T17:16:27.518Z,19.11
2022-10-30T17:18:57.166Z,19.09
2022-10-30T17:21:46.009Z,18.97
2022-10-30T17:24:22.089Z,18.91
2022-10-30T17:26:56.905Z,18.84
2022-10-30T17:29:38.523Z,18.75
2022-10-30T17:32:15.993Z,18.70
2022-10-30T17:34:42.508Z,18.64
2022-10-30T17:37:09.045Z,18.62
2022-10-30T17:39:35.561Z,18.60
2022-10-30T17:42:02.620Z,18.61
2022-10-30T17:44:33.156Z,18.60
2022-10-30T17:47:01.141Z,18.53
2022-10-30T17:49:31.784Z,18.48
2022-10-30T17:51:59.074Z,18.45
2022-10-30T17:54:25.666Z,18.40
2022-10-30T17:56:52.749Z,18.39
2022-10-30T17:59:19.644Z,18.31
2022-10-30T18:01:47.008Z,18.21
2022-10-30T18:04:20.788Z,18.20
2022-10-30T18:06:48.691Z,18.14
2022-10-30T18:09:15.625Z,18.09
2022-10-30T18:11:42.375Z,18.06
2022-10-30T18:14:12.362Z,17.97
2022-10-30T18:16:39.032Z,17.94
2022-10-30T18:19:10.531Z,17.91
2022-10-30T18:21:37.507Z,17.81
2022-10-30T18:24:10.436Z,17.81
2022-10-30T18:26:40.530Z,17.78
2022-10-30T18:29:08.218Z,17.69
2022-10-30T18:31:34.951Z,17.66
2022-10-30T18:34:01.507Z,17.61
2022-10-30T18:36:28.061Z,17.61
2022-10-30T18:38:56.047Z,17.60
2022-10-30T18:41:24.836Z,17.57
2022-10-30T18:43:52.497Z,17.54
2022-10-30T18:46:18.997Z,17.48
2022-10-30T18:48:45.685Z,17.38
2022-10-30T18:51:38.773Z,17.32
2022-10-30T18:54:13.789Z,17.24
2022-10-30T18:56:40.358Z,17.19
2022-10-30T18:59:06.920Z,17.19
2022-10-30T19:01:33.792Z,17.15
2022-10-30T19:04:04.435Z,17.13
2022-10-30T19:06:34.198Z,17.10
2022-10-30T19:09:01.154Z,17.09
2022-10-30T19:11:30.807Z,17.08
2022-10-30T19:13:57.876Z,17.06
2022-10-30T19:16:25.588Z,17.08
2022-10-30T19:18:52.698Z,17.04
2022-10-30T19:21:25.705Z,16.92
2022-10-30T19:23:53.900Z,16.90
2022-10-30T19:26:20.561Z,16.86
2022-10-30T19:28:47.132Z,16.86
2022-10-30T19:31:15.766Z,16.84
2022-10-30T19:33:42.787Z,16.79
2022-10-30T19:36:36.270Z,16.76
2022-10-30T19:39:14.124Z,16.72
2022-10-30T19:41:41.614Z,16.67
2022-10-30T19:44:08.813Z,16.59
2022-10-30T19:46:36.680Z,16.56
2022-10-30T19:49:16.693Z,16.53
2022-10-30T19:51:43.495Z,16.47
2022-10-30T19:54:10.013Z,16.44
2022-10-30T19:56:36.607Z,16.44
2022-10-30T19:59:03.618Z,16.41
2022-10-30T20:01:30.257Z,16.40
2022-10-30T20:03:56.974Z,16.36
2022-10-30T20:06:23.683Z,16.29
2022-10-30T20:08:50.241Z,16.22
2022-10-30T20:11:16.913Z,16.17
2022-10-30T20:13:43.637Z,16.14
2022-10-30T20:16:10.815Z,16.15
2022-10-30T20:18:37.769Z,16.11
2022-10-30T20:21:09.927Z,16.08
2022-10-30T20:23:36.962Z,16.04
2022-10-30T20:26:12.068Z,15.98
2022-10-30T20:28:41.660Z,15.90
2022-10-30T20:31:10.968Z,15.89
2022-10-30T20:33:37.870Z,15.83
2022-10-30T20:36:04.809Z,15.83
2022-10-30T20:38:33.473Z,15.82
2022-10-30T20:41:01.663Z,15.75
2022-10-30T20:43:38.805Z,15.78
2022-10-30T20:46:09.277Z,15.75
2022-10-30T20:48:36.249Z,15.72
2022-10-30T20:51:03.314Z,15.66
2022-10-30T20:53:30.305Z,15.67
2022-10-30T20:55:57.071Z,15.67
2022-10-30T20:58:24.022Z,15.67
2022-10-30T21:00:50.744Z,15.62
2022-10-30T21:03:17.584Z,15.59
2022-10-30T21:05:46.269Z,15.64
2022-10-30T21:08:15.953Z,15.64
2022-10-30T21:10:42.881Z,15.63
2022-10-30T21:13:11.033Z,15.62
2022-10-30T21:15:40.165Z,15.62
2022-10-30T21:18:07.190Z,15.61
2022-10-30T21:20:33.904Z,15.56
2022-10-30T21:23:00.774Z,15.56
2022-10-30T21:25:27.588Z,15.53
2022-10-30T21:27:56.749Z,15.51
2022-10-30T21:30:23.726Z,15.45
2022-10-30T21:32:50.706Z,15.46
2022-10-30T21:35:17.772Z,15.46
2022-10-30T21:37:44.818Z,15.41
2022-10-30T21:40:12.083Z,15.45
2022-10-30T21:42:38.841Z,15.45
2022-10-30T21:45:06.298Z,15.34
2022-10-30T21:47:32.813Z,15.35
2022-10-30T21:49:59.363Z,15.25
2022-10-30T21:52:26.822Z,15.29
2022-10-30T21:54:53.330Z,15.29
2022-10-30T21:57:19.856Z,15.32
2022-10-30T21:59:46.494Z,15.28
2022-10-30T22:02:16.162Z,15.28
2022-10-30T22:04:42.734Z,15.27
2022-10-30T22:07:09.260Z,15.31
2022-10-30T22:09:35.981Z,15.30
2022-10-30T22:12:02.553Z,15.30
2022-10-30T22:14:29.392Z,15.27
2022-10-30T22:16:56.293Z,15.29
2022-10-30T22:19:22.807Z,15.32
2022-10-30T22:21:49.389Z,15.28
2022-10-30T22:24:17.272Z,15.31
2022-10-30T22:26:43.839Z,15.26
2022-10-30T22:29:11.466Z,15.21
2022-10-30T22:31:37.992Z,15.21
2022-10-30T22:34:04.977Z,15.14
2022-10-30T22:36:33.346Z,15.07
2022-10-30T22:39:07.434Z,15.08
2022-10-30T22:41:37.577Z,14.95
2022-10-30T22:44:11.547Z,14.97
2022-10-30T22:46:38.635Z,14.91
2022-10-30T22:49:05.637Z,14.89
2022-10-30T22:51:34.713Z,14.89
2022-10-30T22:54:03.183Z,14.85
2022-10-30T22:56:32.788Z,14.85
2022-10-30T22:59:10.151Z,14.79
2022-10-30T23:01:38.353Z,14.77
2022-10-30T23:04:06.379Z,14.75
2022-10-30T23:06:34.420Z,14.71
2022-10-30T23:09:04.560Z,14.61
2022-10-30T23:11:31.506Z,14.55
2022-10-30T23:13:58.375Z,14.53
2022-10-30T23:16:26.294Z,14.50
2022-10-30T23:18:55.442Z,14.48
2022-10-30T23:21:25.153Z,14.44
2022-10-30T23:23:52.382Z,14.43
2022-10-30T23:26:30.317Z,14.45
2022-10-30T23:28:58.355Z,14.43
2022-10-30T23:31:37.314Z,14.44
2022-10-30T23:34:09.643Z,14.43
2022-10-30T23:36:37.328Z,14.37
2022-10-30T23:39:09.378Z,14.32
2022-10-30T23:41:36.025Z,14.34
2022-10-30T23:44:10.467Z,14.34
2022-10-30T23:46:37.351Z,14.21
2022-10-30T23:49:05.052Z,14.19
2022-10-30T23:51:31.819Z,14.24
2022-10-30T23:53:58.529Z,14.23
2022-10-30T23:56:25.341Z,14.23
2022-10-30T23:58:53.007Z,14.23
